createdAt,value
2018-06-25T00:00:40.719Z,5.27
2018-06-25T00:03:08.026Z,6.33
2018-06-25T00:05:35.349Z,6.43
2018-06-25T00:08:02.634Z,6.30
2018-06-25T00:10:29.947Z,6.57
2018-06-25T00:12:57.240Z,7.30
2018-06-25T00:15:24.546Z,7.17
2018-06-25T00:17:51.847Z,6.77
2018-06-25T00:20:19.171Z,7.00
2018-06-25T00:22:46.498Z,7.20
2018-06-25T00:25:13.864Z,7.10
2018-06-25T00:27:41.169Z,6.90
2018-06-25T00:30:08.475Z,7.10
2018-06-25T00:32:35.791Z,7.53
2018-06-25T00:35:03.102Z,7.13
2018-06-25T00:37:30.472Z,6.83
2018-06-25T00:39:57.772Z,7.40
2018-06-25T00:42:25.262Z,7.03
2018-06-25T00:44:52.602Z,8.03
2018-06-25T00:47:19.895Z,6.73
2018-06-25T00:49:47.208Z,8.17
2018-06-25T00:52:14.515Z,7.13
2018-06-25T00:54:41.814Z,7.27
2018-06-25T00:57:09.182Z,7.10
2018-06-25T00:59:49.838Z,7.60
2018-06-25T01:02:17.168Z,7.73
2018-06-25T01:04:44.486Z,7.33
2018-06-25T01:07:11.795Z,6.47
2018-06-25T01:09:39.108Z,7.43
2018-06-25T01:12:06.432Z,7.83
2018-06-25T01:14:33.715Z,7.87
2018-06-25T01:17:01.032Z,9.27
2018-06-25T01:19:28.354Z,8.70
2018-06-25T01:21:55.657Z,8.97
2018-06-25T01:24:22.967Z,7.63
2018-06-25T01:26:50.268Z,8.50
2018-06-25T01:29:17.571Z,8.10
2018-06-25T01:31:44.890Z,7.93
2018-06-25T01:34:12.271Z,8.67
2018-06-25T01:36:39.587Z,8.00
2018-06-25T01:39:07.275Z,9.30
2018-06-25T01:41:34.745Z,8.70
2018-06-25T01:44:02.039Z,8.77
2018-06-25T01:46:29.334Z,8.50
2018-06-25T01:48:56.652Z,8.67
2018-06-25T01:51:23.989Z,8.90
2018-06-25T01:53:51.323Z,10.77
2018-06-25T01:56:18.634Z,9.10
2018-06-25T01:58:45.954Z,9.43
2018-06-25T02:01:13.729Z,8.47
2018-06-25T02:03:40.994Z,9.37
2018-06-25T02:06:08.321Z,9.17
2018-06-25T02:08:35.602Z,8.97
2018-06-25T02:11:02.910Z,8.80
2018-06-25T02:13:30.228Z,9.00
2018-06-25T02:15:57.542Z,9.47
2018-06-25T02:18:24.838Z,8.90
2018-06-25T02:20:52.179Z,9.63
2018-06-25T02:23:19.492Z,9.23
2018-06-25T02:25:46.804Z,9.73
2018-06-25T02:28:14.113Z,10.83
2018-06-25T02:30:41.407Z,10.07
2018-06-25T02:33:08.751Z,9.40
2018-06-25T02:35:36.067Z,9.30
2018-06-25T02:38:03.566Z,8.80
2018-06-25T02:40:30.881Z,9.67
2018-06-25T02:42:58.050Z,10.00
2018-06-25T02:45:25.652Z,10.50
2018-06-25T02:47:52.938Z,10.40
2018-06-25T02:50:20.260Z,10.30
2018-06-25T02:52:47.558Z,10.70
2018-06-25T02:55:14.891Z,10.10
2018-06-25T02:57:42.229Z,9.97
2018-06-25T03:00:09.518Z,10.00
2018-06-25T03:02:36.909Z,10.50
2018-06-25T03:05:04.222Z,9.50
2018-06-25T03:07:31.569Z,10.37
2018-06-25T03:09:58.897Z,9.70
2018-06-25T03:12:26.187Z,9.80
2018-06-25T03:14:53.497Z,8.43
2018-06-25T03:17:20.923Z,9.50
2018-06-25T03:19:48.247Z,8.83
2018-06-25T03:22:15.585Z,8.83
2018-06-25T03:24:42.882Z,8.37
2018-06-25T03:27:10.182Z,9.17
2018-06-25T03:29:37.509Z,8.53
2018-06-25T03:32:04.812Z,7.93
2018-06-25T03:34:32.103Z,7.40
2018-06-25T03:36:59.421Z,7.90
2018-06-25T03:39:27.241Z,9.50
2018-06-25T03:41:54.576Z,8.33
2018-06-25T03:44:21.940Z,7.80
2018-06-25T03:46:49.248Z,8.47
2018-06-25T03:49:16.420Z,7.60
2018-06-25T03:51:43.724Z,6.67
2018-06-25T03:54:11.035Z,7.20
2018-06-25T03:56:38.231Z,6.67
2018-06-25T03:59:05.530Z,6.07
2018-06-25T04:01:32.853Z,6.83
2018-06-25T04:04:00.135Z,5.93
2018-06-25T04:06:27.459Z,6.70
2018-06-25T04:08:54.627Z,5.87
2018-06-25T04:11:21.817Z,6.07
2018-06-25T04:13:50.168Z,6.07
2018-06-25T04:16:17.519Z,6.07
2018-06-25T04:18:44.844Z,6.63
2018-06-25T04:21:12.179Z,6.43
2018-06-25T04:23:39.521Z,5.90
2018-06-25T04:26:06.800Z,5.90
2018-06-25T04:28:34.237Z,5.70
2018-06-25T04:31:01.533Z,5.60
2018-06-25T04:36:10.584Z,5.00
2018-06-25T04:38:37.940Z,5.20
2018-06-25T04:41:05.354Z,4.77
2018-06-25T04:43:32.683Z,4.57
2018-06-25T04:46:00.038Z,10.23
2018-06-25T04:48:27.376Z,4.37
2018-06-25T04:50:54.703Z,4.70
2018-06-25T04:53:22.116Z,5.27
2018-06-25T04:55:49.416Z,5.93
2018-06-25T04:58:16.763Z,4.93
2018-06-25T05:00:44.073Z,4.87
2018-06-25T05:03:11.376Z,4.70
2018-06-25T05:05:38.727Z,4.87
2018-06-25T05:08:06.149Z,4.80
2018-06-25T05:10:33.515Z,3.97
2018-06-25T05:13:00.791Z,4.43
2018-06-25T05:15:28.093Z,4.60
2018-06-25T05:17:55.412Z,4.47
2018-06-25T05:20:22.745Z,4.73
2018-06-25T05:22:50.151Z,5.13
2018-06-25T05:25:17.460Z,4.10
2018-06-25T05:27:44.805Z,4.83
2018-06-25T05:30:12.092Z,4.20
2018-06-25T05:32:39.439Z,4.70
2018-06-25T05:35:06.820Z,4.47
2018-06-25T05:37:34.153Z,3.20
2018-06-25T05:40:01.355Z,3.70
2018-06-25T05:42:28.705Z,4.53
2018-06-25T05:44:56.044Z,3.63
2018-06-25T05:47:23.344Z,3.40
2018-06-25T05:49:50.670Z,3.80
2018-06-25T05:52:18.015Z,3.47
2018-06-25T05:54:45.400Z,3.80
2018-06-25T05:57:12.904Z,4.53
2018-06-25T05:59:40.195Z,2.93
2018-06-25T06:02:07.538Z,3.10
2018-06-25T06:04:34.936Z,3.40
2018-06-25T06:07:02.271Z,3.47
2018-06-25T06:09:29.662Z,3.00
2018-06-25T06:11:57.008Z,3.33
2018-06-25T06:14:24.341Z,3.60
2018-06-25T06:16:51.668Z,3.30
2018-06-25T06:19:19.020Z,2.80
2018-06-25T06:21:46.325Z,3.17
2018-06-25T06:24:13.771Z,2.30
2018-06-25T06:26:41.237Z,3.00
2018-06-25T06:29:08.548Z,2.40
2018-06-25T06:31:35.892Z,2.70
2018-06-25T06:34:03.263Z,3.70
2018-06-25T06:36:30.563Z,2.80
2018-06-25T06:38:57.888Z,2.90
2018-06-25T06:41:25.263Z,2.60
2018-06-25T06:43:52.609Z,3.03
2018-06-25T06:46:19.972Z,2.80
2018-06-25T06:48:47.657Z,2.47
2018-06-25T06:51:15.012Z,2.50
2018-06-25T06:53:42.395Z,2.13
2018-06-25T06:56:09.751Z,2.47
2018-06-25T06:58:37.064Z,2.13
2018-06-25T07:01:04.399Z,2.00
2018-06-25T07:03:31.695Z,2.30
2018-06-25T07:05:59.116Z,5.70
2018-06-25T07:08:26.443Z,4.23
2018-06-25T07:10:53.870Z,1.80
2018-06-25T07:13:21.204Z,3.70
2018-06-25T07:15:48.529Z,2.50
2018-06-25T07:18:15.920Z,2.90
2018-06-25T07:20:43.290Z,2.10
2018-06-25T07:23:10.648Z,2.10
2018-06-25T07:25:38.043Z,1.77
2018-06-25T07:28:05.746Z,2.20
2018-06-25T07:30:33.058Z,1.50
2018-06-25T07:33:00.384Z,1.60
2018-06-25T07:35:27.732Z,1.63
2018-06-25T07:37:55.095Z,2.60
2018-06-25T07:40:22.452Z,2.00
2018-06-25T07:42:49.754Z,2.00
2018-06-25T07:45:17.158Z,1.60
2018-06-25T07:47:44.479Z,2.00
2018-06-25T07:50:11.795Z,1.87
2018-06-25T07:52:39.134Z,1.40
2018-06-25T07:55:06.491Z,1.47
2018-06-25T07:57:33.870Z,1.63
2018-06-25T08:00:01.347Z,1.40
2018-06-25T08:02:28.760Z,1.80
2018-06-25T08:04:56.132Z,1.43
2018-06-25T08:07:23.429Z,1.80
2018-06-25T08:09:50.779Z,1.60
2018-06-25T08:12:18.118Z,1.47
2018-06-25T08:14:45.436Z,1.60
2018-06-25T08:17:12.755Z,1.63
2018-06-25T08:19:40.055Z,1.60
2018-06-25T08:22:07.459Z,1.30
2018-06-25T08:24:34.769Z,1.70
2018-06-25T08:27:02.115Z,1.20
2018-06-25T08:29:29.448Z,1.10
2018-06-25T08:31:56.763Z,1.33
2018-06-25T08:34:24.272Z,1.40
2018-06-25T08:36:51.416Z,1.30
2018-06-25T08:39:18.756Z,2.23
2018-06-25T08:41:46.184Z,1.30
2018-06-25T08:44:13.570Z,1.30
2018-06-25T08:46:40.892Z,1.60
2018-06-25T08:49:08.227Z,1.67
2018-06-25T08:51:35.552Z,1.30
2018-06-25T08:54:02.896Z,1.33
2018-06-25T08:56:30.271Z,1.50
2018-06-25T08:58:57.617Z,1.20
2018-06-25T09:01:24.959Z,1.60
2018-06-25T09:03:52.304Z,1.80
2018-06-25T09:06:19.505Z,3.43
2018-06-25T09:08:47.027Z,1.40
2018-06-25T09:11:14.350Z,2.10
2018-06-25T09:13:41.662Z,1.80
2018-06-25T09:16:08.983Z,1.57
2018-06-25T09:18:36.371Z,1.50
2018-06-25T09:21:03.787Z,1.47
2018-06-25T09:23:31.124Z,1.33
2018-06-25T09:25:58.484Z,1.60
2018-06-25T09:28:25.842Z,1.97
2018-06-25T09:30:53.147Z,1.60
2018-06-25T09:33:20.843Z,1.90
2018-06-25T09:35:48.195Z,1.30
2018-06-25T09:38:15.711Z,1.17
2018-06-25T09:40:43.158Z,1.30
2018-06-25T09:43:10.529Z,1.80
2018-06-25T09:45:37.864Z,1.17
2018-06-25T09:48:05.700Z,1.43
2018-06-25T09:50:33.139Z,1.87
2018-06-25T09:53:00.331Z,1.50
2018-06-25T09:55:27.675Z,1.40
2018-06-25T09:57:55.009Z,1.33
2018-06-25T10:00:22.349Z,1.60
2018-06-25T10:02:49.698Z,2.70
2018-06-25T10:05:17.197Z,1.60
2018-06-25T10:07:44.607Z,1.00
2018-06-25T10:10:11.920Z,1.30
2018-06-25T10:12:39.312Z,2.83
2018-06-25T10:15:06.640Z,1.77
2018-06-25T10:17:34.019Z,1.60
2018-06-25T10:20:01.404Z,1.67
2018-06-25T10:22:28.761Z,1.50
2018-06-25T10:24:56.062Z,1.53
2018-06-25T10:27:23.424Z,1.93
2018-06-25T10:29:50.845Z,1.63
2018-06-25T10:32:18.176Z,10.33
2018-06-25T10:34:45.602Z,14.03
2018-06-25T10:37:12.860Z,1.37
2018-06-25T10:39:40.195Z,3.83
2018-06-25T10:42:07.547Z,1.40
2018-06-25T10:44:34.961Z,14.20
2018-06-25T10:47:02.252Z,2.00
2018-06-25T10:49:29.587Z,4.27
2018-06-25T10:51:56.878Z,1.37
2018-06-25T10:54:24.332Z,1.07
2018-06-25T10:56:51.715Z,1.00
2018-06-25T10:59:19.042Z,1.60
2018-06-25T11:01:46.351Z,1.60
2018-06-25T11:04:13.703Z,1.17
2018-06-25T11:06:41.061Z,1.43
2018-06-25T11:09:08.624Z,1.40
2018-06-25T11:11:35.899Z,1.10
2018-06-25T11:14:03.210Z,1.30
2018-06-25T11:16:30.571Z,1.30
2018-06-25T11:18:58.009Z,1.20
2018-06-25T11:21:25.319Z,1.40
2018-06-25T11:23:52.667Z,1.30
2018-06-25T11:26:19.984Z,1.10
2018-06-25T11:28:47.199Z,1.10
2018-06-25T11:31:15.144Z,1.37
2018-06-25T11:33:42.584Z,1.30
2018-06-25T11:36:09.901Z,1.60
2018-06-25T11:38:37.328Z,1.10
2018-06-25T11:41:04.767Z,1.50
2018-06-25T11:43:32.107Z,1.40
2018-06-25T11:45:59.556Z,1.33
2018-06-25T11:48:26.743Z,1.30
2018-06-25T11:50:54.092Z,1.30
2018-06-25T11:53:21.438Z,1.37
2018-06-25T11:55:48.784Z,1.30
2018-06-25T11:58:16.149Z,1.37
2018-06-25T12:00:43.460Z,1.13
2018-06-25T12:03:10.840Z,1.20
2018-06-25T12:05:38.013Z,1.40
2018-06-25T12:08:05.351Z,1.20
2018-06-25T12:10:32.696Z,1.30
2018-06-25T12:13:00.032Z,1.20
2018-06-25T12:15:27.389Z,1.53
2018-06-25T12:17:54.726Z,1.37
2018-06-25T12:20:22.059Z,1.30
2018-06-25T12:22:49.425Z,1.43
2018-06-25T12:25:16.788Z,1.10
2018-06-25T12:27:44.330Z,1.10
2018-06-25T12:30:11.667Z,1.40
2018-06-25T12:32:39.148Z,1.50
2018-06-25T12:35:06.584Z,1.20
2018-06-25T12:37:33.840Z,1.37
2018-06-25T12:40:02.140Z,1.30
2018-06-25T12:42:29.467Z,1.60
2018-06-25T12:44:56.806Z,1.53
2018-06-25T12:47:24.121Z,1.20
2018-06-25T12:49:51.482Z,1.47
2018-06-25T12:52:18.682Z,1.40
2018-06-25T12:54:46.005Z,1.90
2018-06-25T12:57:13.339Z,1.93
2018-06-25T12:59:40.703Z,1.30
2018-06-25T13:02:08.017Z,1.37
2018-06-25T13:04:35.353Z,1.30
2018-06-25T13:07:02.648Z,3.90
2018-06-25T13:09:29.966Z,1.47
2018-06-25T13:11:57.293Z,1.67
2018-06-25T13:14:24.657Z,1.20
2018-06-25T13:16:51.972Z,2.30
2018-06-25T13:19:19.391Z,1.67
2018-06-25T13:21:46.726Z,1.40
2018-06-25T13:24:14.047Z,1.50
2018-06-25T13:26:41.371Z,1.70
2018-06-25T13:29:08.826Z,1.93
2018-06-25T13:31:36.149Z,1.40
2018-06-25T13:34:03.449Z,1.13
2018-06-25T13:36:30.774Z,1.57
2018-06-25T13:38:58.104Z,1.17
2018-06-25T13:41:25.569Z,1.10
2018-06-25T13:43:52.812Z,1.50
2018-06-25T13:46:20.185Z,1.37
2018-06-25T13:48:47.535Z,1.20
2018-06-25T13:51:14.859Z,1.47
2018-06-25T13:53:42.196Z,1.80
2018-06-25T13:56:09.544Z,1.70
2018-06-25T13:58:36.927Z,1.60
2018-06-25T14:01:04.252Z,1.47
2018-06-25T14:03:31.608Z,1.60
2018-06-25T14:05:58.946Z,1.10
2018-06-25T14:08:26.263Z,1.50
2018-06-25T14:10:53.568Z,1.73
2018-06-25T14:13:20.898Z,1.40
2018-06-25T14:15:48.864Z,1.20
2018-06-25T14:18:16.376Z,2.00
2018-06-25T14:20:43.684Z,1.13
2018-06-25T14:23:11.047Z,1.40
2018-06-25T14:25:38.458Z,1.77
2018-06-25T14:28:05.769Z,1.67
2018-06-25T14:30:33.071Z,1.50
2018-06-25T14:33:00.403Z,1.23
2018-06-25T14:35:27.746Z,1.43
2018-06-25T14:37:55.063Z,3.90
2018-06-25T14:40:22.408Z,1.50
2018-06-25T14:42:49.784Z,1.20
2018-06-25T14:45:17.159Z,2.77
2018-06-25T14:47:44.472Z,1.40
2018-06-25T14:50:11.762Z,1.70
2018-06-25T14:52:39.095Z,2.50
2018-06-25T14:55:06.456Z,1.10
2018-06-25T14:57:33.760Z,1.50
2018-06-25T15:00:01.095Z,1.77
2018-06-25T15:02:28.396Z,2.60
2018-06-25T15:04:55.763Z,1.90
2018-06-25T15:07:23.105Z,2.27
2018-06-25T15:09:50.411Z,2.50
2018-06-25T15:12:17.843Z,1.83
2018-06-25T15:14:45.183Z,1.70
2018-06-25T15:17:12.479Z,1.80
2018-06-25T15:19:39.826Z,1.80
2018-06-25T15:22:07.135Z,1.50
2018-06-25T15:24:34.458Z,2.53
2018-06-25T15:27:01.679Z,3.53
2018-06-25T15:29:28.996Z,2.70
2018-06-25T15:31:56.389Z,2.60
2018-06-25T15:34:23.700Z,3.40
2018-06-25T15:36:51.149Z,2.50
2018-06-25T15:39:18.542Z,2.23
2018-06-25T15:41:45.961Z,2.53
2018-06-25T15:44:13.316Z,2.50
2018-06-25T15:46:40.680Z,2.30
2018-06-25T15:49:08.024Z,2.43
2018-06-25T15:51:35.375Z,2.13
2018-06-25T15:54:02.681Z,2.60
2018-06-25T15:56:30.013Z,2.23
2018-06-25T15:58:57.396Z,4.30
2018-06-25T16:01:24.720Z,2.40
2018-06-25T16:03:52.056Z,2.73
2018-06-25T16:06:19.417Z,2.60
2018-06-25T16:08:46.775Z,2.63
2018-06-25T16:11:14.299Z,6.53
2018-06-25T16:13:41.629Z,2.23
2018-06-25T16:16:09.037Z,2.23
2018-06-25T16:18:36.389Z,2.60
2018-06-25T16:21:03.711Z,2.63
2018-06-25T16:23:31.048Z,2.47
2018-06-25T16:25:58.383Z,2.00
2018-06-25T16:28:25.849Z,2.90
2018-06-25T16:30:53.196Z,2.50
2018-06-25T16:33:20.603Z,3.30
2018-06-25T16:35:47.978Z,3.10
2018-06-25T16:38:15.458Z,4.30
2018-06-25T16:40:42.830Z,3.20
2018-06-25T16:43:10.920Z,3.87
2018-06-25T16:45:38.297Z,3.20
2018-06-25T16:48:05.618Z,3.57
2018-06-25T16:50:32.952Z,3.07
2018-06-25T16:53:00.293Z,5.53
2018-06-25T16:55:27.616Z,2.87
2018-06-25T16:57:54.980Z,4.43
2018-06-25T17:00:22.316Z,2.90
2018-06-25T17:02:49.726Z,3.20
2018-06-25T17:05:17.095Z,3.07
2018-06-25T17:07:44.444Z,3.80
2018-06-25T17:10:11.765Z,3.23
2018-06-25T17:12:39.123Z,4.03
2018-06-25T17:15:06.436Z,3.73
2018-06-25T17:17:33.776Z,4.80
2018-06-25T17:20:01.094Z,3.40
2018-06-25T17:22:28.575Z,4.00
2018-06-25T17:24:55.928Z,3.23
2018-06-25T17:27:23.263Z,3.30
2018-06-25T17:29:50.624Z,3.67
2018-06-25T17:32:18.713Z,3.53
2018-06-25T17:34:46.063Z,3.93
2018-06-25T17:37:13.392Z,3.73
2018-06-25T17:39:40.753Z,3.70
2018-06-25T17:42:08.057Z,4.43
2018-06-25T17:44:35.443Z,3.27
2018-06-25T17:47:02.864Z,3.87
2018-06-25T17:49:30.401Z,3.50
2018-06-25T17:51:57.696Z,6.03
2018-06-25T17:54:25.036Z,4.07
2018-06-25T17:56:52.360Z,5.53
2018-06-25T17:59:19.748Z,4.37
2018-06-25T18:01:47.064Z,4.00
2018-06-25T18:04:14.464Z,4.30
2018-06-25T18:06:41.785Z,7.27
2018-06-25T18:09:09.132Z,4.87
2018-06-25T18:11:36.571Z,4.33
2018-06-25T18:14:03.924Z,4.90
2018-06-25T18:16:31.376Z,5.17
2018-06-25T18:18:59.157Z,3.83
2018-06-25T18:21:26.667Z,3.80
2018-06-25T18:23:54.068Z,4.23
2018-06-25T18:26:21.404Z,4.43
2018-06-25T18:28:48.918Z,3.90
2018-06-25T18:31:16.285Z,4.60
2018-06-25T18:33:43.688Z,4.80
2018-06-25T18:36:11.002Z,3.70
2018-06-25T18:38:38.370Z,4.60
2018-06-25T18:41:05.695Z,3.93
2018-06-25T18:43:33.034Z,4.00
2018-06-25T18:46:00.325Z,3.70
2018-06-25T18:48:27.665Z,3.90
2018-06-25T18:50:54.980Z,3.87
2018-06-25T18:53:22.374Z,3.60
2018-06-25T18:55:49.683Z,3.63
2018-06-25T18:58:17.248Z,4.40
2018-06-25T19:00:44.553Z,6.33
2018-06-25T19:03:11.897Z,7.20
2018-06-25T19:05:39.280Z,5.13
2018-06-25T19:08:06.560Z,5.20
2018-06-25T19:10:33.880Z,4.70
2018-06-25T19:13:01.206Z,4.70
2018-06-25T19:15:28.540Z,4.53
2018-06-25T19:17:55.877Z,5.00
2018-06-25T19:20:23.079Z,4.90
2018-06-25T19:22:50.421Z,6.13
2018-06-25T19:25:17.732Z,6.67
2018-06-25T19:27:45.536Z,6.57
2018-06-25T19:30:12.933Z,5.80
2018-06-25T19:32:40.940Z,6.23
2018-06-25T19:35:08.272Z,6.57
2018-06-25T19:37:36.153Z,7.23
2018-06-25T19:40:03.814Z,6.63
2018-06-25T19:42:31.130Z,7.80
2018-06-25T19:44:58.942Z,7.30
2018-06-25T19:47:26.298Z,7.47
2018-06-25T19:49:53.592Z,10.17
2018-06-25T19:52:20.910Z,9.43
2018-06-25T19:54:48.219Z,8.77
2018-06-25T19:57:15.602Z,10.20
2018-06-25T19:59:42.924Z,10.37
2018-06-25T20:02:10.192Z,10.23
2018-06-25T20:04:37.660Z,9.93
2018-06-25T20:07:04.979Z,11.33
2018-06-25T20:09:32.299Z,11.17
2018-06-25T20:11:59.620Z,11.40
2018-06-25T20:14:26.929Z,11.10
2018-06-25T20:16:54.360Z,11.67
2018-06-25T20:19:21.719Z,11.63
2018-06-25T20:21:48.943Z,10.30
2018-06-25T20:24:16.560Z,11.27
2018-06-25T20:26:43.912Z,10.33
2018-06-25T20:29:11.300Z,12.10
2018-06-25T20:31:38.588Z,11.30
2018-06-25T20:34:05.965Z,11.03
2018-06-25T20:36:33.257Z,10.93
2018-06-25T20:39:00.619Z,10.00
2018-06-25T20:41:27.974Z,10.40
2018-06-25T20:43:55.312Z,10.67
2018-06-25T20:46:22.817Z,9.97
2018-06-25T20:48:50.236Z,11.80
2018-06-25T20:51:17.635Z,11.50
2018-06-25T20:53:45.087Z,11.53
2018-06-25T20:56:12.275Z,11.00
2018-06-25T20:58:39.743Z,10.67
2018-06-25T21:01:07.092Z,11.40
2018-06-25T21:03:34.485Z,11.43
2018-06-25T21:06:01.814Z,12.47
2018-06-25T21:08:29.168Z,13.10
2018-06-25T21:10:56.501Z,11.60
2018-06-25T21:13:23.828Z,11.90
2018-06-25T21:15:51.207Z,12.00
2018-06-25T21:18:18.537Z,12.40
2018-06-25T21:20:45.863Z,11.60
2018-06-25T21:23:13.192Z,10.93
2018-06-25T21:25:41.624Z,12.80
2018-06-25T21:28:09.467Z,12.40
2018-06-25T21:30:37.409Z,10.07
2018-06-25T21:33:04.820Z,11.60
2018-06-25T21:35:32.166Z,12.73
2018-06-25T21:37:59.544Z,12.67
2018-06-25T21:40:26.915Z,12.93
2018-06-25T21:42:54.237Z,13.20
2018-06-25T21:45:21.702Z,11.80
2018-06-25T21:50:33.616Z,12.10
2018-06-25T21:53:00.797Z,12.07
2018-06-25T21:55:28.267Z,13.37
2018-06-25T21:57:55.620Z,12.10
2018-06-25T22:00:24.995Z,11.50
2018-06-25T22:02:52.360Z,12.77
2018-06-25T22:05:19.766Z,12.60
2018-06-25T22:07:47.199Z,13.00
2018-06-25T22:10:14.349Z,13.10
2018-06-25T22:12:41.744Z,11.87
2018-06-25T22:15:09.060Z,12.93
2018-06-25T22:17:36.262Z,13.50
2018-06-25T22:20:03.905Z,12.23
2018-06-25T22:22:31.101Z,12.83
2018-06-25T22:24:58.438Z,12.67
2018-06-25T22:27:25.809Z,12.47
2018-06-25T22:29:52.986Z,11.30
2018-06-25T22:32:20.307Z,12.37
2018-06-25T22:34:47.684Z,11.13
2018-06-25T22:37:15.054Z,11.60
2018-06-25T22:39:42.224Z,11.87
2018-06-25T22:42:09.382Z,11.97
2018-06-25T22:44:36.603Z,11.13
2018-06-25T22:47:04.053Z,11.57
2018-06-25T22:49:31.420Z,11.47
2018-06-25T22:51:58.773Z,12.00
2018-06-25T22:54:25.924Z,12.03
2018-06-25T22:56:53.278Z,11.03
2018-06-25T22:59:20.616Z,11.50
2018-06-25T23:04:19.631Z,9.77
2018-06-25T23:06:46.824Z,10.80
2018-06-25T23:09:14.144Z,10.67
2018-06-25T23:11:41.324Z,9.67
2018-06-25T23:14:08.674Z,10.27
2018-06-25T23:16:36.202Z,9.47
2018-06-25T23:19:03.551Z,9.40
2018-06-25T23:21:31.024Z,8.47
2018-06-25T23:23:58.325Z,11.70
2018-06-25T23:26:25.685Z,9.70
2018-06-25T23:28:53.036Z,8.83
2018-06-25T23:31:20.364Z,9.40
2018-06-25T23:33:47.578Z,9.40
2018-06-25T23:36:14.891Z,8.87
2018-06-25T23:38:42.082Z,9.20
2018-06-25T23:41:09.397Z,9.13
2018-06-25T23:43:36.730Z,9.00
2018-06-25T23:46:04.221Z,9.17
2018-06-25T23:48:31.578Z,8.43
2018-06-25T23:50:58.913Z,7.87
2018-06-25T23:53:26.248Z,7.70
2018-06-25T23:55:53.706Z,8.63
2018-06-25T23:58:21.048Z,8.20
